sensor_id;sensor_type;location;lat;lon;timestamp;P1;durP1;ratioP1;P2;durP2;ratioP2
1436;SDS011;712;51.026;13.792;2023-01-23T00:02:07;28.30;;;10.43;;
1436;SDS011;712;51.026;13.792;2023-01-23T00:04:33;33.08;;;11.05;;
1436;SDS011;712;51.026;13.792;2023-01-23T00:06:58;38.30;;;10.90;;
1436;SDS011;712;51.026;13.792;2023-01-23T00:09:23;30.33;;;10.40;;
1436;SDS011;712;51.026;13.792;2023-01-23T00:11:49;37.08;;;11.10;;
1436;SDS011;712;51.026;13.792;2023-01-23T00:14:14;36.78;;;10.77;;
1436;SDS011;712;51.026;13.792;2023-01-23T00:16:39;41.90;;;11.80;;
1436;SDS011;712;51.026;13.792;2023-01-23T00:19:04;30.03;;;10.70;;
1436;SDS011;712;51.026;13.792;2023-01-23T00:21:29;27.17;;;10.15;;
1436;SDS011;712;51.026;13.792;2023-01-23T00:23:55;33.15;;;10.93;;
1436;SDS011;712;51.026;13.792;2023-01-23T00:26:22;36.67;;;11.65;;
1436;SDS011;712;51.026;13.792;2023-01-23T00:28:48;26.45;;;10.10;;
1436;SDS011;712;51.026;13.792;2023-01-23T00:31:17;28.75;;;9.90;;
1436;SDS011;712;51.026;13.792;2023-01-23T00:33:43;31.00;;;10.30;;
1436;SDS011;712;51.026;13.792;2023-01-23T00:36:09;26.13;;;9.35;;
1436;SDS011;712;51.026;13.792;2023-01-23T00:38:34;21.63;;;8.48;;
1436;SDS011;712;51.026;13.792;2023-01-23T00:41:00;22.33;;;8.73;;
1436;SDS011;712;51.026;13.792;2023-01-23T00:43:26;26.98;;;9.85;;
1436;SDS011;712;51.026;13.792;2023-01-23T00:45:51;30.48;;;10.38;;
1436;SDS011;712;51.026;13.792;2023-01-23T00:48:16;37.93;;;10.97;;
1436;SDS011;712;51.026;13.792;2023-01-23T00:50:42;32.53;;;10.73;;
1436;SDS011;712;51.026;13.792;2023-01-23T00:53:07;32.93;;;11.07;;
1436;SDS011;712;51.026;13.792;2023-01-23T00:55:32;22.87;;;9.03;;
1436;SDS011;712;51.026;13.792;2023-01-23T00:57:57;29.20;;;10.40;;
1436;SDS011;712;51.026;13.792;2023-01-23T01:00:23;32.72;;;10.13;;
1436;SDS011;712;51.026;13.792;2023-01-23T01:02:48;37.33;;;11.18;;
1436;SDS011;712;51.026;13.792;2023-01-23T01:05:13;25.27;;;9.02;;
1436;SDS011;712;51.026;13.792;2023-01-23T01:07:39;34.58;;;10.60;;
1436;SDS011;712;51.026;13.792;2023-01-23T01:10:05;28.27;;;10.73;;
1436;SDS011;712;51.026;13.792;2023-01-23T01:12:30;34.60;;;11.07;;
1436;SDS011;712;51.026;13.792;2023-01-23T01:14:55;28.50;;;10.38;;
1436;SDS011;712;51.026;13.792;2023-01-23T01:17:20;31.85;;;10.60;;
1436;SDS011;712;51.026;13.792;2023-01-23T01:19:45;33.60;;;10.93;;
1436;SDS011;712;51.026;13.792;2023-01-23T01:22:10;28.15;;;9.63;;
1436;SDS011;712;51.026;13.792;2023-01-23T01:24:36;35.77;;;10.80;;
1436;SDS011;712;51.026;13.792;2023-01-23T01:27:01;27.83;;;9.70;;
1436;SDS011;712;51.026;13.792;2023-01-23T01:29:26;25.80;;;9.53;;
1436;SDS011;712;51.026;13.792;2023-01-23T01:31:51;27.05;;;9.45;;
1436;SDS011;712;51.026;13.792;2023-01-23T01:34:16;28.27;;;9.40;;
1436;SDS011;712;51.026;13.792;2023-01-23T01:36:41;30.00;;;10.20;;
1436;SDS011;712;51.026;13.792;2023-01-23T01:39:06;24.60;;;8.95;;
1436;SDS011;712;51.026;13.792;2023-01-23T01:41:31;27.67;;;9.38;;
1436;SDS011;712;51.026;13.792;2023-01-23T01:43:57;22.37;;;8.83;;
1436;SDS011;712;51.026;13.792;2023-01-23T01:46:25;31.67;;;10.50;;
1436;SDS011;712;51.026;13.792;2023-01-23T01:51:23;29.98;;;10.13;;
1436;SDS011;712;51.026;13.792;2023-01-23T01:53:54;30.85;;;9.90;;
1436;SDS011;712;51.026;13.792;2023-01-23T01:56:20;31.95;;;9.82;;
1436;SDS011;712;51.026;13.792;2023-01-23T01:58:46;27.37;;;9.73;;
1436;SDS011;712;51.026;13.792;2023-01-23T02:01:12;35.72;;;9.80;;
1436;SDS011;712;51.026;13.792;2023-01-23T02:03:37;29.65;;;10.25;;
1436;SDS011;712;51.026;13.792;2023-01-23T02:06:03;39.08;;;10.50;;
1436;SDS011;712;51.026;13.792;2023-01-23T02:08:34;27.10;;;9.53;;
1436;SDS011;712;51.026;13.792;2023-01-23T02:11:00;27.27;;;9.30;;
1436;SDS011;712;51.026;13.792;2023-01-23T02:13:33;26.35;;;10.18;;
1436;SDS011;712;51.026;13.792;2023-01-23T02:16:12;32.15;;;10.90;;
1436;SDS011;712;51.026;13.792;2023-01-23T02:18:39;32.95;;;10.70;;
1436;SDS011;712;51.026;13.792;2023-01-23T02:21:08;33.63;;;10.32;;
1436;SDS011;712;51.026;13.792;2023-01-23T02:26:17;29.92;;;10.20;;
1436;SDS011;712;51.026;13.792;2023-01-23T02:28:44;32.15;;;9.80;;
1436;SDS011;712;51.026;13.792;2023-01-23T02:31:10;30.85;;;10.55;;
1436;SDS011;712;51.026;13.792;2023-01-23T02:36:01;25.00;;;9.45;;
1436;SDS011;712;51.026;13.792;2023-01-23T02:38:39;31.33;;;10.68;;
1436;SDS011;712;51.026;13.792;2023-01-23T02:41:08;28.67;;;9.73;;
1436;SDS011;712;51.026;13.792;2023-01-23T02:43:34;29.88;;;10.75;;
1436;SDS011;712;51.026;13.792;2023-01-23T02:46:01;27.35;;;9.55;;
1436;SDS011;712;51.026;13.792;2023-01-23T02:48:27;23.67;;;9.05;;
1436;SDS011;712;51.026;13.792;2023-01-23T02:50:52;23.53;;;9.30;;
1436;SDS011;712;51.026;13.792;2023-01-23T02:53:17;29.13;;;10.23;;
1436;SDS011;712;51.026;13.792;2023-01-23T02:55:42;27.70;;;9.50;;
1436;SDS011;712;51.026;13.792;2023-01-23T02:58:08;28.75;;;9.23;;
1436;SDS011;712;51.026;13.792;2023-01-23T03:00:52;32.42;;;10.93;;
1436;SDS011;712;51.026;13.792;2023-01-23T03:03:17;32.05;;;9.77;;
1436;SDS011;712;51.026;13.792;2023-01-23T03:05:42;27.58;;;9.98;;
1436;SDS011;712;51.026;13.792;2023-01-23T03:08:08;31.50;;;10.73;;
1436;SDS011;712;51.026;13.792;2023-01-23T03:10:33;29.98;;;10.30;;
1436;SDS011;712;51.026;13.792;2023-01-23T03:12:58;32.13;;;10.23;;
1436;SDS011;712;51.026;13.792;2023-01-23T03:15:27;26.35;;;10.13;;
1436;SDS011;712;51.026;13.792;2023-01-23T03:17:52;31.00;;;9.83;;
1436;SDS011;712;51.026;13.792;2023-01-23T03:20:18;29.08;;;10.27;;
1436;SDS011;712;51.026;13.792;2023-01-23T03:22:43;30.27;;;10.00;;
1436;SDS011;712;51.026;13.792;2023-01-23T03:25:09;32.77;;;10.63;;
1436;SDS011;712;51.026;13.792;2023-01-23T03:27:34;25.20;;;9.15;;
1436;SDS011;712;51.026;13.792;2023-01-23T03:30:01;25.30;;;8.77;;
1436;SDS011;712;51.026;13.792;2023-01-23T03:32:40;28.42;;;9.57;;
1436;SDS011;712;51.026;13.792;2023-01-23T03:35:06;25.65;;;9.05;;
1436;SDS011;712;51.026;13.792;2023-01-23T03:37:34;32.35;;;10.20;;
1436;SDS011;712;51.026;13.792;2023-01-23T03:39:59;29.13;;;10.40;;
1436;SDS011;712;51.026;13.792;2023-01-23T03:42:43;33.22;;;10.27;;
1436;SDS011;712;51.026;13.792;2023-01-23T03:45:08;31.85;;;10.60;;
1436;SDS011;712;51.026;13.792;2023-01-23T03:47:33;26.15;;;9.68;;
1436;SDS011;712;51.026;13.792;2023-01-23T03:49:59;34.95;;;10.00;;
1436;SDS011;712;51.026;13.792;2023-01-23T03:52:24;31.40;;;9.90;;
1436;SDS011;712;51.026;13.792;2023-01-23T03:54:49;27.70;;;9.77;;
1436;SDS011;712;51.026;13.792;2023-01-23T03:57:14;22.88;;;8.73;;
1436;SDS011;712;51.026;13.792;2023-01-23T03:59:39;30.87;;;10.03;;
1436;SDS011;712;51.026;13.792;2023-01-23T04:02:05;28.75;;;9.95;;
1436;SDS011;712;51.026;13.792;2023-01-23T04:04:30;30.80;;;10.63;;
1436;SDS011;712;51.026;13.792;2023-01-23T04:06:56;25.80;;;9.70;;
1436;SDS011;712;51.026;13.792;2023-01-23T04:09:21;27.40;;;9.50;;
1436;SDS011;712;51.026;13.792;2023-01-23T04:11:51;30.08;;;10.10;;
1436;SDS011;712;51.026;13.792;2023-01-23T04:14:16;23.73;;;9.37;;
1436;SDS011;712;51.026;13.792;2023-01-23T04:16:41;27.97;;;10.40;;
1436;SDS011;712;51.026;13.792;2023-01-23T04:19:06;24.77;;;9.88;;
1436;SDS011;712;51.026;13.792;2023-01-23T04:21:32;30.17;;;10.18;;
1436;SDS011;712;51.026;13.792;2023-01-23T04:23:57;22.33;;;8.70;;
1436;SDS011;712;51.026;13.792;2023-01-23T04:26:22;26.05;;;10.07;;
1436;SDS011;712;51.026;13.792;2023-01-23T04:28:47;36.13;;;10.57;;
1436;SDS011;712;51.026;13.792;2023-01-23T04:31:12;32.83;;;9.98;;
1436;SDS011;712;51.026;13.792;2023-01-23T04:33:37;33.10;;;11.40;;
1436;SDS011;712;51.026;13.792;2023-01-23T04:36:04;33.53;;;10.90;;
1436;SDS011;712;51.026;13.792;2023-01-23T04:38:29;28.90;;;10.27;;
1436;SDS011;712;51.026;13.792;2023-01-23T04:40:55;35.25;;;10.85;;
1436;SDS011;712;51.026;13.792;2023-01-23T04:43:20;30.88;;;10.13;;
1436;SDS011;712;51.026;13.792;2023-01-23T04:45:45;28.00;;;10.27;;
1436;SDS011;712;51.026;13.792;2023-01-23T04:48:11;33.58;;;10.63;;
1436;SDS011;712;51.026;13.792;2023-01-23T04:50:37;25.63;;;9.43;;
1436;SDS011;712;51.026;13.792;2023-01-23T04:53:02;32.92;;;10.55;;
1436;SDS011;712;51.026;13.792;2023-01-23T04:55:27;26.70;;;8.90;;
1436;SDS011;712;51.026;13.792;2023-01-23T04:57:53;23.80;;;8.80;;
1436;SDS011;712;51.026;13.792;2023-01-23T05:00:18;27.45;;;10.27;;
1436;SDS011;712;51.026;13.792;2023-01-23T05:02:45;28.40;;;9.77;;
1436;SDS011;712;51.026;13.792;2023-01-23T05:05:10;31.80;;;10.65;;
1436;SDS011;712;51.026;13.792;2023-01-23T05:07:36;25.73;;;9.98;;
1436;SDS011;712;51.026;13.792;2023-01-23T05:10:01;27.47;;;10.37;;
1436;SDS011;712;51.026;13.792;2023-01-23T05:12:27;28.33;;;10.40;;
1436;SDS011;712;51.026;13.792;2023-01-23T05:14:52;30.02;;;10.43;;
1436;SDS011;712;51.026;13.792;2023-01-23T05:17:17;30.03;;;10.20;;
1436;SDS011;712;51.026;13.792;2023-01-23T05:19:42;35.83;;;10.32;;
1436;SDS011;712;51.026;13.792;2023-01-23T05:22:07;30.95;;;10.20;;
1436;SDS011;712;51.026;13.792;2023-01-23T05:24:32;36.78;;;11.68;;
1436;SDS011;712;51.026;13.792;2023-01-23T05:26:57;25.77;;;9.43;;
1436;SDS011;712;51.026;13.792;2023-01-23T05:29:23;26.93;;;9.57;;
1436;SDS011;712;51.026;13.792;2023-01-23T05:31:48;31.23;;;10.68;;
1436;SDS011;712;51.026;13.792;2023-01-23T05:34:13;33.63;;;10.53;;
1436;SDS011;712;51.026;13.792;2023-01-23T05:36:38;32.28;;;10.82;;
1436;SDS011;712;51.026;13.792;2023-01-23T05:39:03;31.40;;;10.90;;
1436;SDS011;712;51.026;13.792;2023-01-23T05:41:28;37.97;;;11.55;;
1436;SDS011;712;51.026;13.792;2023-01-23T05:43:54;33.13;;;10.52;;
1436;SDS011;712;51.026;13.792;2023-01-23T05:46:19;36.13;;;11.90;;
1436;SDS011;712;51.026;13.792;2023-01-23T05:48:47;31.20;;;10.68;;
1436;SDS011;712;51.026;13.792;2023-01-23T05:51:12;37.88;;;11.77;;
1436;SDS011;712;51.026;13.792;2023-01-23T05:53:37;32.30;;;10.88;;
1436;SDS011;712;51.026;13.792;2023-01-23T05:56:08;37.17;;;10.77;;
1436;SDS011;712;51.026;13.792;2023-01-23T05:58:33;35.97;;;10.77;;
1436;SDS011;712;51.026;13.792;2023-01-23T06:01:00;30.47;;;10.93;;
1436;SDS011;712;51.026;13.792;2023-01-23T06:03:25;32.38;;;10.00;;
1436;SDS011;712;51.026;13.792;2023-01-23T06:05:50;31.52;;;11.43;;
1436;SDS011;712;51.026;13.792;2023-01-23T06:08:16;30.13;;;10.07;;
1436;SDS011;712;51.026;13.792;2023-01-23T06:10:41;30.95;;;10.35;;
1436;SDS011;712;51.026;13.792;2023-01-23T06:13:06;29.55;;;9.65;;
1436;SDS011;712;51.026;13.792;2023-01-23T06:15:31;37.77;;;11.87;;
1436;SDS011;712;51.026;13.792;2023-01-23T06:17:56;32.92;;;11.05;;
1436;SDS011;712;51.026;13.792;2023-01-23T06:20:21;31.80;;;10.43;;
1436;SDS011;712;51.026;13.792;2023-01-23T06:22:47;38.72;;;11.82;;
1436;SDS011;712;51.026;13.792;2023-01-23T06:25:12;33.53;;;10.95;;
1436;SDS011;712;51.026;13.792;2023-01-23T06:27:37;31.47;;;11.40;;
1436;SDS011;712;51.026;13.792;2023-01-23T06:30:02;27.20;;;9.70;;
1436;SDS011;712;51.026;13.792;2023-01-23T06:32:28;32.88;;;11.10;;
1436;SDS011;712;51.026;13.792;2023-01-23T06:34:53;34.08;;;11.38;;
1436;SDS011;712;51.026;13.792;2023-01-23T06:37:18;34.70;;;11.80;;
1436;SDS011;712;51.026;13.792;2023-01-23T06:39:43;32.92;;;11.45;;
1436;SDS011;712;51.026;13.792;2023-01-23T06:42:08;39.10;;;12.23;;
1436;SDS011;712;51.026;13.792;2023-01-23T06:44:34;39.03;;;12.35;;
1436;SDS011;712;51.026;13.792;2023-01-23T06:46:59;34.38;;;11.82;;
1436;SDS011;712;51.026;13.792;2023-01-23T06:49:24;33.45;;;12.38;;
1436;SDS011;712;51.026;13.792;2023-01-23T06:51:50;30.50;;;11.37;;
1436;SDS011;712;51.026;13.792;2023-01-23T06:54:15;37.20;;;11.95;;
1436;SDS011;712;51.026;13.792;2023-01-23T06:56:40;34.67;;;11.37;;
1436;SDS011;712;51.026;13.792;2023-01-23T06:59:05;28.90;;;11.07;;
1436;SDS011;712;51.026;13.792;2023-01-23T07:01:30;29.97;;;10.37;;
1436;SDS011;712;51.026;13.792;2023-01-23T07:03:55;34.37;;;10.83;;
1436;SDS011;712;51.026;13.792;2023-01-23T07:06:20;36.85;;;11.50;;
1436;SDS011;712;51.026;13.792;2023-01-23T07:08:46;35.27;;;11.40;;
1436;SDS011;712;51.026;13.792;2023-01-23T07:11:11;31.33;;;11.00;;
1436;SDS011;712;51.026;13.792;2023-01-23T07:13:36;31.90;;;11.55;;
1436;SDS011;712;51.026;13.792;2023-01-23T07:16:02;28.70;;;10.63;;
1436;SDS011;712;51.026;13.792;2023-01-23T07:18:27;34.42;;;11.73;;
1436;SDS011;712;51.026;13.792;2023-01-23T07:20:54;30.58;;;11.50;;
1436;SDS011;712;51.026;13.792;2023-01-23T07:23:19;33.23;;;11.63;;
1436;SDS011;712;51.026;13.792;2023-01-23T07:25:45;37.80;;;12.25;;
1436;SDS011;712;51.026;13.792;2023-01-23T07:28:10;36.53;;;12.68;;
1436;SDS011;712;51.026;13.792;2023-01-23T07:30:35;37.07;;;12.57;;
1436;SDS011;712;51.026;13.792;2023-01-23T07:33:00;38.35;;;13.13;;
1436;SDS011;712;51.026;13.792;2023-01-23T07:35:26;29.20;;;10.95;;
1436;SDS011;712;51.026;13.792;2023-01-23T07:37:51;33.37;;;12.07;;
1436;SDS011;712;51.026;13.792;2023-01-23T07:40:16;31.35;;;11.98;;
1436;SDS011;712;51.026;13.792;2023-01-23T07:42:42;38.37;;;12.93;;
1436;SDS011;712;51.026;13.792;2023-01-23T07:45:07;34.88;;;10.82;;
1436;SDS011;712;51.026;13.792;2023-01-23T07:47:33;38.33;;;11.93;;
1436;SDS011;712;51.026;13.792;2023-01-23T07:49:58;39.60;;;12.75;;
1436;SDS011;712;51.026;13.792;2023-01-23T07:52:24;34.37;;;11.70;;
1436;SDS011;712;51.026;13.792;2023-01-23T07:54:49;42.22;;;13.70;;
1436;SDS011;712;51.026;13.792;2023-01-23T07:57:14;37.17;;;11.85;;
1436;SDS011;712;51.026;13.792;2023-01-23T07:59:39;33.40;;;12.65;;
1436;SDS011;712;51.026;13.792;2023-01-23T08:02:04;38.93;;;12.20;;
1436;SDS011;712;51.026;13.792;2023-01-23T08:04:29;34.77;;;12.13;;
1436;SDS011;712;51.026;13.792;2023-01-23T08:06:54;36.67;;;12.15;;
1436;SDS011;712;51.026;13.792;2023-01-23T08:09:20;35.90;;;12.40;;
1436;SDS011;712;51.026;13.792;2023-01-23T08:11:45;35.37;;;12.67;;
1436;SDS011;712;51.026;13.792;2023-01-23T08:14:10;42.13;;;13.02;;
1436;SDS011;712;51.026;13.792;2023-01-23T08:16:35;32.55;;;11.48;;
1436;SDS011;712;51.026;13.792;2023-01-23T08:19:00;41.67;;;13.02;;
1436;SDS011;712;51.026;13.792;2023-01-23T08:21:25;35.90;;;11.93;;
1436;SDS011;712;51.026;13.792;2023-01-23T08:23:50;32.05;;;11.25;;
1436;SDS011;712;51.026;13.792;2023-01-23T08:26:16;32.83;;;11.70;;
1436;SDS011;712;51.026;13.792;2023-01-23T08:28:41;32.72;;;12.52;;
1436;SDS011;712;51.026;13.792;2023-01-23T08:31:07;37.45;;;12.57;;
1436;SDS011;712;51.026;13.792;2023-01-23T08:33:33;34.05;;;11.93;;
1436;SDS011;712;51.026;13.792;2023-01-23T08:35:59;29.08;;;11.45;;
1436;SDS011;712;51.026;13.792;2023-01-23T08:38:24;33.20;;;12.37;;
1436;SDS011;712;51.026;13.792;2023-01-23T08:40:50;30.45;;;11.48;;
1436;SDS011;712;51.026;13.792;2023-01-23T08:43:16;28.35;;;10.40;;
1436;SDS011;712;51.026;13.792;2023-01-23T08:45:49;27.15;;;10.63;;
1436;SDS011;712;51.026;13.792;2023-01-23T08:48:15;37.50;;;12.05;;
1436;SDS011;712;51.026;13.792;2023-01-23T08:50:40;40.63;;;12.88;;
1436;SDS011;712;51.026;13.792;2023-01-23T08:53:06;36.87;;;12.27;;
1436;SDS011;712;51.026;13.792;2023-01-23T08:55:31;29.47;;;11.50;;
1436;SDS011;712;51.026;13.792;2023-01-23T08:57:57;34.55;;;12.57;;
1436;SDS011;712;51.026;13.792;2023-01-23T09:00:22;31.75;;;11.75;;
1436;SDS011;712;51.026;13.792;2023-01-23T09:02:47;31.03;;;11.77;;
1436;SDS011;712;51.026;13.792;2023-01-23T09:05:12;33.50;;;11.65;;
1436;SDS011;712;51.026;13.792;2023-01-23T09:07:37;29.87;;;12.13;;
1436;SDS011;712;51.026;13.792;2023-01-23T09:10:03;29.73;;;11.88;;
1436;SDS011;712;51.026;13.792;2023-01-23T09:12:29;28.65;;;11.20;;
1436;SDS011;712;51.026;13.792;2023-01-23T09:14:55;33.22;;;12.98;;
1436;SDS011;712;51.026;13.792;2023-01-23T09:17:20;33.05;;;11.93;;
1436;SDS011;712;51.026;13.792;2023-01-23T09:19:45;32.53;;;12.17;;
1436;SDS011;712;51.026;13.792;2023-01-23T09:22:10;31.35;;;11.75;;
1436;SDS011;712;51.026;13.792;2023-01-23T09:24:36;31.88;;;12.07;;
1436;SDS011;712;51.026;13.792;2023-01-23T09:27:01;32.07;;;12.00;;
1436;SDS011;712;51.026;13.792;2023-01-23T09:29:26;30.70;;;11.47;;
1436;SDS011;712;51.026;13.792;2023-01-23T09:31:51;35.73;;;12.13;;
1436;SDS011;712;51.026;13.792;2023-01-23T09:34:16;33.30;;;12.00;;
1436;SDS011;712;51.026;13.792;2023-01-23T09:36:41;29.83;;;11.85;;
1436;SDS011;712;51.026;13.792;2023-01-23T09:39:07;29.13;;;11.88;;
1436;SDS011;712;51.026;13.792;2023-01-23T09:41:32;30.53;;;11.37;;
1436;SDS011;712;51.026;13.792;2023-01-23T09:43:58;27.90;;;11.33;;
1436;SDS011;712;51.026;13.792;2023-01-23T09:46:34;32.10;;;12.05;;
1436;SDS011;712;51.026;13.792;2023-01-23T09:49:09;27.75;;;11.27;;
1436;SDS011;712;51.026;13.792;2023-01-23T09:51:46;28.42;;;10.52;;
1436;SDS011;712;51.026;13.792;2023-01-23T09:56:59;30.23;;;11.20;;
1436;SDS011;712;51.026;13.792;2023-01-23T10:01:55;32.50;;;12.40;;
1436;SDS011;712;51.026;13.792;2023-01-23T10:04:21;30.88;;;12.00;;
1436;SDS011;712;51.026;13.792;2023-01-23T10:09:20;34.80;;;12.88;;
1436;SDS011;712;51.026;13.792;2023-01-23T10:11:54;28.92;;;11.90;;
1436;SDS011;712;51.026;13.792;2023-01-23T10:14:38;28.88;;;11.73;;
1436;SDS011;712;51.026;13.792;2023-01-23T10:17:18;27.52;;;10.63;;
1436;SDS011;712;51.026;13.792;2023-01-23T10:24:54;30.98;;;11.85;;
1436;SDS011;712;51.026;13.792;2023-01-23T10:27:21;29.25;;;12.25;;
1436;SDS011;712;51.026;13.792;2023-01-23T10:29:51;30.65;;;11.68;;
1436;SDS011;712;51.026;13.792;2023-01-23T10:32:24;32.58;;;12.50;;
1436;SDS011;712;51.026;13.792;2023-01-23T10:34:54;30.83;;;11.88;;
1436;SDS011;712;51.026;13.792;2023-01-23T10:37:26;26.95;;;10.30;;
1436;SDS011;712;51.026;13.792;2023-01-23T10:39:57;31.45;;;11.40;;
1436;SDS011;712;51.026;13.792;2023-01-23T10:42:24;33.63;;;12.55;;
1436;SDS011;712;51.026;13.792;2023-01-23T10:44:50;32.88;;;12.52;;
1436;SDS011;712;51.026;13.792;2023-01-23T10:47:28;36.07;;;13.00;;
1436;SDS011;712;51.026;13.792;2023-01-23T10:49:54;34.83;;;12.98;;
1436;SDS011;712;51.026;13.792;2023-01-23T10:55:00;28.73;;;11.88;;
1436;SDS011;712;51.026;13.792;2023-01-23T10:57:26;27.60;;;10.87;;
1436;SDS011;712;51.026;13.792;2023-01-23T11:02:18;35.67;;;13.30;;
1436;SDS011;712;51.026;13.792;2023-01-23T11:04:45;31.90;;;12.55;;
1436;SDS011;712;51.026;13.792;2023-01-23T11:07:12;32.22;;;12.95;;
1436;SDS011;712;51.026;13.792;2023-01-23T11:12:16;32.92;;;13.57;;
1436;SDS011;712;51.026;13.792;2023-01-23T11:14:42;30.20;;;10.68;;
1436;SDS011;712;51.026;13.792;2023-01-23T11:19:39;26.75;;;10.18;;
1436;SDS011;712;51.026;13.792;2023-01-23T11:22:10;27.98;;;10.95;;
1436;SDS011;712;51.026;13.792;2023-01-23T11:24:46;25.83;;;10.27;;
1436;SDS011;712;51.026;13.792;2023-01-23T11:32:20;27.73;;;11.02;;
1436;SDS011;712;51.026;13.792;2023-01-23T11:34:48;23.05;;;9.18;;
1436;SDS011;712;51.026;13.792;2023-01-23T11:37:16;25.73;;;10.02;;
1436;SDS011;712;51.026;13.792;2023-01-23T11:40:02;20.88;;;8.20;;
1436;SDS011;712;51.026;13.792;2023-01-23T11:42:29;24.17;;;9.95;;
1436;SDS011;712;51.026;13.792;2023-01-23T11:44:55;25.92;;;10.00;;
1436;SDS011;712;51.026;13.792;2023-01-23T11:52:57;28.65;;;10.23;;
1436;SDS011;712;51.026;13.792;2023-01-23T11:55:32;25.85;;;9.70;;
1436;SDS011;712;51.026;13.792;2023-01-23T12:01:02;25.73;;;9.95;;
1436;SDS011;712;51.026;13.792;2023-01-23T12:03:35;26.30;;;10.18;;
1436;SDS011;712;51.026;13.792;2023-01-23T12:06:16;27.42;;;10.63;;
1436;SDS011;712;51.026;13.792;2023-01-23T12:08:50;29.45;;;10.88;;
1436;SDS011;712;51.026;13.792;2023-01-23T12:11:17;23.95;;;9.10;;
1436;SDS011;712;51.026;13.792;2023-01-23T12:13:55;27.70;;;10.15;;
1436;SDS011;712;51.026;13.792;2023-01-23T12:16:27;24.58;;;9.68;;
1436;SDS011;712;51.026;13.792;2023-01-23T12:19:57;28.75;;;10.85;;
1436;SDS011;712;51.026;13.792;2023-01-23T12:22:02;30.83;;;12.55;;
1436;SDS011;712;51.026;13.792;2023-01-23T12:24:49;33.13;;;12.27;;
1436;SDS011;712;51.026;13.792;2023-01-23T12:27:20;26.77;;;10.48;;
1436;SDS011;712;51.026;13.792;2023-01-23T12:30:02;26.17;;;9.25;;
1436;SDS011;712;51.026;13.792;2023-01-23T12:32:41;25.00;;;9.13;;
1436;SDS011;712;51.026;13.792;2023-01-23T12:35:15;32.65;;;11.20;;
1436;SDS011;712;51.026;13.792;2023-01-23T12:37:45;22.98;;;9.02;;
1436;SDS011;712;51.026;13.792;2023-01-23T12:40:15;24.67;;;9.55;;
1436;SDS011;712;51.026;13.792;2023-01-23T12:42:54;25.10;;;9.57;;
1436;SDS011;712;51.026;13.792;2023-01-23T12:45:23;25.33;;;9.68;;
1436;SDS011;712;51.026;13.792;2023-01-23T12:47:54;30.60;;;11.95;;
1436;SDS011;712;51.026;13.792;2023-01-23T12:50:38;30.20;;;11.85;;
1436;SDS011;712;51.026;13.792;2023-01-23T12:53:06;29.05;;;10.55;;
1436;SDS011;712;51.026;13.792;2023-01-23T12:55:46;25.00;;;9.77;;
1436;SDS011;712;51.026;13.792;2023-01-23T12:58:15;26.58;;;10.65;;
1436;SDS011;712;51.026;13.792;2023-01-23T13:08:28;29.75;;;10.65;;
1436;SDS011;712;51.026;13.792;2023-01-23T13:13:46;31.95;;;12.73;;
1436;SDS011;712;51.026;13.792;2023-01-23T13:16:15;32.07;;;12.10;;
1436;SDS011;712;51.026;13.792;2023-01-23T13:18:50;33.33;;;12.77;;
1436;SDS011;712;51.026;13.792;2023-01-23T13:21:34;34.50;;;13.02;;
1436;SDS011;712;51.026;13.792;2023-01-23T13:24:39;35.28;;;12.38;;
1436;SDS011;712;51.026;13.792;2023-01-23T13:27:42;32.38;;;12.27;;
1436;SDS011;712;51.026;13.792;2023-01-23T13:32:46;42.13;;;15.10;;
1436;SDS011;712;51.026;13.792;2023-01-23T13:35:50;39.83;;;13.83;;
1436;SDS011;712;51.026;13.792;2023-01-23T13:43:41;35.10;;;12.63;;
1436;SDS011;712;51.026;13.792;2023-01-23T13:46:11;34.53;;;12.80;;
1436;SDS011;712;51.026;13.792;2023-01-23T13:51:39;38.70;;;13.65;;
1436;SDS011;712;51.026;13.792;2023-01-23T13:54:09;38.47;;;13.63;;
1436;SDS011;712;51.026;13.792;2023-01-23T13:56:54;38.97;;;13.63;;
1436;SDS011;712;51.026;13.792;2023-01-23T14:01:48;38.22;;;13.43;;
1436;SDS011;712;51.026;13.792;2023-01-23T14:04:33;38.38;;;13.20;;
1436;SDS011;712;51.026;13.792;2023-01-23T14:07:28;40.97;;;13.65;;
1436;SDS011;712;51.026;13.792;2023-01-23T14:10:22;42.75;;;13.70;;
1436;SDS011;712;51.026;13.792;2023-01-23T14:12:47;33.78;;;12.30;;
1436;SDS011;712;51.026;13.792;2023-01-23T14:15:16;35.80;;;13.30;;
1436;SDS011;712;51.026;13.792;2023-01-23T14:18:00;37.58;;;13.02;;
1436;SDS011;712;51.026;13.792;2023-01-23T14:20:25;37.47;;;13.15;;
1436;SDS011;712;51.026;13.792;2023-01-23T14:22:55;46.97;;;15.18;;
1436;SDS011;712;51.026;13.792;2023-01-23T14:25:20;44.30;;;13.93;;
1436;SDS011;712;51.026;13.792;2023-01-23T14:27:45;44.67;;;14.30;;
1436;SDS011;712;51.026;13.792;2023-01-23T14:32:38;43.92;;;14.32;;
1436;SDS011;712;51.026;13.792;2023-01-23T14:35:16;46.47;;;15.38;;
1436;SDS011;712;51.026;13.792;2023-01-23T14:37:41;43.90;;;14.57;;
1436;SDS011;712;51.026;13.792;2023-01-23T14:40:15;40.03;;;14.57;;
1436;SDS011;712;51.026;13.792;2023-01-23T14:42:41;41.60;;;14.57;;
1436;SDS011;712;51.026;13.792;2023-01-23T14:45:07;46.55;;;15.30;;
1436;SDS011;712;51.026;13.792;2023-01-23T14:47:39;46.53;;;15.77;;
1436;SDS011;712;51.026;13.792;2023-01-23T14:50:08;45.90;;;14.70;;
1436;SDS011;712;51.026;13.792;2023-01-23T14:52:34;39.53;;;13.65;;
1436;SDS011;712;51.026;13.792;2023-01-23T14:54:59;43.38;;;13.93;;
1436;SDS011;712;51.026;13.792;2023-01-23T14:57:25;41.08;;;14.40;;
1436;SDS011;712;51.026;13.792;2023-01-23T14:59:57;44.80;;;15.55;;
1436;SDS011;712;51.026;13.792;2023-01-23T15:10:23;45.63;;;14.73;;
1436;SDS011;712;51.026;13.792;2023-01-23T15:12:59;53.20;;;17.38;;
1436;SDS011;712;51.026;13.792;2023-01-23T15:15:26;50.85;;;16.17;;
1436;SDS011;712;51.026;13.792;2023-01-23T15:17:51;39.72;;;14.38;;
1436;SDS011;712;51.026;13.792;2023-01-23T15:25:46;55.83;;;16.23;;
1436;SDS011;712;51.026;13.792;2023-01-23T15:28:31;45.87;;;15.47;;
1436;SDS011;712;51.026;13.792;2023-01-23T15:31:01;56.15;;;17.02;;
1436;SDS011;712;51.026;13.792;2023-01-23T15:33:27;48.60;;;15.82;;
1436;SDS011;712;51.026;13.792;2023-01-23T15:36:07;48.88;;;15.90;;
1436;SDS011;712;51.026;13.792;2023-01-23T15:38:33;50.05;;;16.15;;
1436;SDS011;712;51.026;13.792;2023-01-23T15:40:58;46.75;;;15.27;;
1436;SDS011;712;51.026;13.792;2023-01-23T15:43:24;51.10;;;15.73;;
1436;SDS011;712;51.026;13.792;2023-01-23T15:45:49;52.50;;;15.98;;
1436;SDS011;712;51.026;13.792;2023-01-23T15:48:14;43.10;;;14.70;;
1436;SDS011;712;51.026;13.792;2023-01-23T15:50:39;51.65;;;16.65;;
1436;SDS011;712;51.026;13.792;2023-01-23T15:53:09;58.87;;;17.87;;
1436;SDS011;712;51.026;13.792;2023-01-23T15:55:34;50.35;;;15.95;;
1436;SDS011;712;51.026;13.792;2023-01-23T15:57:59;55.50;;;17.05;;
1436;SDS011;712;51.026;13.792;2023-01-23T16:00:25;47.45;;;15.45;;
1436;SDS011;712;51.026;13.792;2023-01-23T16:02:54;52.72;;;16.55;;
1436;SDS011;712;51.026;13.792;2023-01-23T16:05:30;50.05;;;16.45;;
1436;SDS011;712;51.026;13.792;2023-01-23T16:07:56;43.33;;;15.55;;
1436;SDS011;712;51.026;13.792;2023-01-23T16:10:26;48.28;;;16.52;;
1436;SDS011;712;51.026;13.792;2023-01-23T16:15:21;55.30;;;17.50;;
1436;SDS011;712;51.026;13.792;2023-01-23T16:17:46;52.80;;;17.02;;
1436;SDS011;712;51.026;13.792;2023-01-23T16:20:22;54.55;;;17.25;;
1436;SDS011;712;51.026;13.792;2023-01-23T16:22:51;48.05;;;15.43;;